Terminal Aerodrome Forecast
Issued by NWS Lake Charles, LA

Home | Current Version | Previous Version | Text Only | Print | Product List | Glossary On
Versions: 1 2 3 4 5 6 7 8 9 10 11 12 13 14 15 16
000
FTUS44 KLCH 270520
TAFARA
TAF
KARA 270520Z 2706/2806 18010KT P6SM FEW021
     FM271500 17013G19KT P6SM BKN027
     FM271800 17012G18KT P6SM FEW025 BKN030 PROB30 2718/2724 SHRA
      SCT045
     FM280000 16011KT P6SM SKC=

USA.gov is the U.S. government's official web portal to all federal, state and local government web resources and services.